sensor_id;sensor_type;location;lat;lon;timestamp;P1;durP1;ratioP1;P2;durP2;ratioP2
23632;SDS011;11993;48.748;9.166;2023-01-04T00:00:22;12.55;;;9.07;;
23632;SDS011;11993;48.748;9.166;2023-01-04T00:02:48;12.38;;;9.73;;
23632;SDS011;11993;48.748;9.166;2023-01-04T00:05:13;16.88;;;8.63;;
23632;SDS011;11993;48.748;9.166;2023-01-04T00:07:39;9.90;;;8.00;;
23632;SDS011;11993;48.748;9.166;2023-01-04T00:10:05;12.38;;;8.85;;
23632;SDS011;11993;48.748;9.166;2023-01-04T00:12:30;11.52;;;9.35;;
23632;SDS011;11993;48.748;9.166;2023-01-04T00:14:56;12.13;;;8.77;;
23632;SDS011;11993;48.748;9.166;2023-01-04T00:17:21;9.55;;;8.10;;
23632;SDS011;11993;48.748;9.166;2023-01-04T00:19:47;11.25;;;8.88;;
23632;SDS011;11993;48.748;9.166;2023-01-04T00:22:12;13.60;;;8.40;;
23632;SDS011;11993;48.748;9.166;2023-01-04T00:24:38;12.75;;;9.75;;
23632;SDS011;11993;48.748;9.166;2023-01-04T00:27:03;10.77;;;8.35;;
23632;SDS011;11993;48.748;9.166;2023-01-04T00:29:29;10.90;;;9.32;;
23632;SDS011;11993;48.748;9.166;2023-01-04T00:31:55;11.10;;;8.52;;
23632;SDS011;11993;48.748;9.166;2023-01-04T00:34:21;11.57;;;8.13;;
23632;SDS011;11993;48.748;9.166;2023-01-04T00:36:46;12.02;;;8.82;;
23632;SDS011;11993;48.748;9.166;2023-01-04T00:39:13;10.70;;;8.32;;
23632;SDS011;11993;48.748;9.166;2023-01-04T00:44:12;10.52;;;7.63;;
23632;SDS011;11993;48.748;9.166;2023-01-04T00:46:39;12.50;;;8.15;;
23632;SDS011;11993;48.748;9.166;2023-01-04T00:49:06;11.43;;;8.18;;
23632;SDS011;11993;48.748;9.166;2023-01-04T00:51:33;10.00;;;8.15;;
23632;SDS011;11993;48.748;9.166;2023-01-04T00:54:00;10.07;;;7.90;;
23632;SDS011;11993;48.748;9.166;2023-01-04T00:56:30;10.73;;;8.57;;
23632;SDS011;11993;48.748;9.166;2023-01-04T00:58:57;11.77;;;8.43;;
23632;SDS011;11993;48.748;9.166;2023-01-04T01:01:24;12.57;;;9.00;;
23632;SDS011;11993;48.748;9.166;2023-01-04T01:03:51;8.48;;;6.85;;
23632;SDS011;11993;48.748;9.166;2023-01-04T01:06:18;9.40;;;7.32;;
23632;SDS011;11993;48.748;9.166;2023-01-04T01:08:45;8.82;;;6.70;;
23632;SDS011;11993;48.748;9.166;2023-01-04T01:11:10;9.80;;;7.57;;
23632;SDS011;11993;48.748;9.166;2023-01-04T01:13:36;10.27;;;7.80;;
23632;SDS011;11993;48.748;9.166;2023-01-04T01:16:03;10.20;;;7.50;;
23632;SDS011;11993;48.748;9.166;2023-01-04T01:18:34;11.38;;;7.95;;
23632;SDS011;11993;48.748;9.166;2023-01-04T01:21:03;12.90;;;7.50;;
23632;SDS011;11993;48.748;9.166;2023-01-04T01:23:33;12.27;;;8.50;;
23632;SDS011;11993;48.748;9.166;2023-01-04T01:26:02;15.43;;;9.10;;
23632;SDS011;11993;48.748;9.166;2023-01-04T01:28:29;10.68;;;7.30;;
23632;SDS011;11993;48.748;9.166;2023-01-04T01:30:55;14.55;;;8.50;;
23632;SDS011;11993;48.748;9.166;2023-01-04T01:33:20;10.68;;;8.15;;
23632;SDS011;11993;48.748;9.166;2023-01-04T01:35:46;11.43;;;8.73;;
23632;SDS011;11993;48.748;9.166;2023-01-04T01:38:12;10.80;;;8.25;;
23632;SDS011;11993;48.748;9.166;2023-01-04T01:40:40;12.07;;;8.68;;
23632;SDS011;11993;48.748;9.166;2023-01-04T01:43:14;10.45;;;7.85;;
23632;SDS011;11993;48.748;9.166;2023-01-04T01:45:45;12.38;;;8.10;;
23632;SDS011;11993;48.748;9.166;2023-01-04T01:48:15;11.23;;;7.72;;
23632;SDS011;11993;48.748;9.166;2023-01-04T01:50:49;13.45;;;8.52;;
23632;SDS011;11993;48.748;9.166;2023-01-04T01:53:25;11.13;;;7.97;;
23632;SDS011;11993;48.748;9.166;2023-01-04T01:55:53;9.52;;;7.05;;
23632;SDS011;11993;48.748;9.166;2023-01-04T02:01:04;10.98;;;7.15;;
23632;SDS011;11993;48.748;9.166;2023-01-04T02:03:31;8.43;;;6.35;;
23632;SDS011;11993;48.748;9.166;2023-01-04T02:06:00;8.20;;;5.90;;
23632;SDS011;11993;48.748;9.166;2023-01-04T02:08:29;9.85;;;6.82;;
23632;SDS011;11993;48.748;9.166;2023-01-04T02:10:55;9.35;;;6.47;;
23632;SDS011;11993;48.748;9.166;2023-01-04T02:13:26;8.95;;;6.53;;
23632;SDS011;11993;48.748;9.166;2023-01-04T02:16:16;8.48;;;6.50;;
23632;SDS011;11993;48.748;9.166;2023-01-04T02:36:54;7.03;;;5.72;;
23632;SDS011;11993;48.748;9.166;2023-01-04T02:39:36;9.10;;;6.70;;
23632;SDS011;11993;48.748;9.166;2023-01-04T02:45:11;8.52;;;6.13;;
23632;SDS011;11993;48.748;9.166;2023-01-04T02:47:39;7.97;;;6.35;;
23632;SDS011;11993;48.748;9.166;2023-01-04T02:50:58;10.45;;;6.03;;
23632;SDS011;11993;48.748;9.166;2023-01-04T02:53:36;8.65;;;6.10;;
23632;SDS011;11993;48.748;9.166;2023-01-04T03:01:15;9.25;;;6.72;;
23632;SDS011;11993;48.748;9.166;2023-01-04T03:09:40;8.10;;;6.40;;
23632;SDS011;11993;48.748;9.166;2023-01-04T03:12:12;9.98;;;6.65;;
23632;SDS011;11993;48.748;9.166;2023-01-04T03:15:06;8.00;;;6.22;;
23632;SDS011;11993;48.748;9.166;2023-01-04T03:17:38;8.35;;;5.93;;
23632;SDS011;11993;48.748;9.166;2023-01-04T03:20:19;10.13;;;6.88;;
23632;SDS011;11993;48.748;9.166;2023-01-04T03:22:54;7.80;;;5.80;;
23632;SDS011;11993;48.748;9.166;2023-01-04T03:25:43;7.47;;;5.38;;
23632;SDS011;11993;48.748;9.166;2023-01-04T03:28:32;7.28;;;5.03;;
23632;SDS011;11993;48.748;9.166;2023-01-04T03:31:30;7.80;;;5.72;;
23632;SDS011;11993;48.748;9.166;2023-01-04T03:34:20;7.68;;;5.47;;
23632;SDS011;11993;48.748;9.166;2023-01-04T03:37:25;7.25;;;5.45;;
23632;SDS011;11993;48.748;9.166;2023-01-04T03:40:19;9.27;;;5.90;;
23632;SDS011;11993;48.748;9.166;2023-01-04T03:43:17;8.38;;;5.88;;
23632;SDS011;11993;48.748;9.166;2023-01-04T03:46:05;7.90;;;5.22;;
23632;SDS011;11993;48.748;9.166;2023-01-04T03:49:02;8.13;;;5.32;;
23632;SDS011;11993;48.748;9.166;2023-01-04T03:51:43;5.67;;;4.70;;
23632;SDS011;11993;48.748;9.166;2023-01-04T03:54:13;7.45;;;5.18;;
23632;SDS011;11993;48.748;9.166;2023-01-04T03:56:47;6.30;;;5.13;;
23632;SDS011;11993;48.748;9.166;2023-01-04T03:59:15;6.85;;;5.13;;
23632;SDS011;11993;48.748;9.166;2023-01-04T04:01:41;6.35;;;4.75;;
23632;SDS011;11993;48.748;9.166;2023-01-04T04:04:08;6.55;;;4.70;;
23632;SDS011;11993;48.748;9.166;2023-01-04T04:06:52;7.63;;;4.70;;
23632;SDS011;11993;48.748;9.166;2023-01-04T04:09:36;5.95;;;4.38;;
23632;SDS011;11993;48.748;9.166;2023-01-04T04:12:02;5.78;;;4.50;;
23632;SDS011;11993;48.748;9.166;2023-01-04T04:14:27;4.40;;;4.00;;
23632;SDS011;11993;48.748;9.166;2023-01-04T04:16:53;5.07;;;3.72;;
23632;SDS011;11993;48.748;9.166;2023-01-04T04:19:18;5.80;;;4.00;;
23632;SDS011;11993;48.748;9.166;2023-01-04T04:21:44;5.30;;;4.10;;
23632;SDS011;11993;48.748;9.166;2023-01-04T04:24:16;6.35;;;4.50;;
23632;SDS011;11993;48.748;9.166;2023-01-04T04:26:50;6.68;;;4.07;;
23632;SDS011;11993;48.748;9.166;2023-01-04T04:29:18;5.25;;;4.13;;
23632;SDS011;11993;48.748;9.166;2023-01-04T04:31:44;4.90;;;4.00;;
23632;SDS011;11993;48.748;9.166;2023-01-04T04:34:09;5.65;;;3.72;;
23632;SDS011;11993;48.748;9.166;2023-01-04T04:36:35;4.78;;;3.80;;
23632;SDS011;11993;48.748;9.166;2023-01-04T04:39:01;6.90;;;4.20;;
23632;SDS011;11993;48.748;9.166;2023-01-04T04:41:26;4.75;;;3.78;;
23632;SDS011;11993;48.748;9.166;2023-01-04T04:46:36;4.32;;;3.40;;
23632;SDS011;11993;48.748;9.166;2023-01-04T04:49:02;5.80;;;3.88;;
23632;SDS011;11993;48.748;9.166;2023-01-04T04:51:28;4.97;;;3.13;;
23632;SDS011;11993;48.748;9.166;2023-01-04T04:53:54;4.00;;;3.20;;
23632;SDS011;11993;48.748;9.166;2023-01-04T04:56:20;5.32;;;3.80;;
23632;SDS011;11993;48.748;9.166;2023-01-04T04:58:46;5.05;;;3.30;;
23632;SDS011;11993;48.748;9.166;2023-01-04T05:01:11;4.18;;;3.22;;
23632;SDS011;11993;48.748;9.166;2023-01-04T05:03:37;3.63;;;3.05;;
23632;SDS011;11993;48.748;9.166;2023-01-04T05:06:03;4.35;;;3.25;;
23632;SDS011;11993;48.748;9.166;2023-01-04T05:08:29;5.38;;;3.35;;
23632;SDS011;11993;48.748;9.166;2023-01-04T05:10:54;4.65;;;3.42;;
23632;SDS011;11993;48.748;9.166;2023-01-04T05:13:20;5.70;;;3.63;;
23632;SDS011;11993;48.748;9.166;2023-01-04T05:15:47;3.97;;;2.90;;
23632;SDS011;11993;48.748;9.166;2023-01-04T05:18:14;3.47;;;2.72;;
23632;SDS011;11993;48.748;9.166;2023-01-04T05:20:41;4.03;;;2.83;;
23632;SDS011;11993;48.748;9.166;2023-01-04T05:23:08;4.97;;;2.67;;
23632;SDS011;11993;48.748;9.166;2023-01-04T05:25:35;4.68;;;3.00;;
23632;SDS011;11993;48.748;9.166;2023-01-04T05:28:01;3.33;;;2.67;;
23632;SDS011;11993;48.748;9.166;2023-01-04T05:30:27;4.57;;;3.03;;
23632;SDS011;11993;48.748;9.166;2023-01-04T05:33:11;2.90;;;2.53;;
23632;SDS011;11993;48.748;9.166;2023-01-04T05:35:36;3.22;;;2.72;;
23632;SDS011;11993;48.748;9.166;2023-01-04T05:38:02;4.13;;;3.13;;
23632;SDS011;11993;48.748;9.166;2023-01-04T05:40:28;6.13;;;2.78;;
23632;SDS011;11993;48.748;9.166;2023-01-04T05:42:53;4.60;;;3.10;;
23632;SDS011;11993;48.748;9.166;2023-01-04T05:45:19;3.78;;;2.67;;
23632;SDS011;11993;48.748;9.166;2023-01-04T05:47:47;4.57;;;3.35;;
23632;SDS011;11993;48.748;9.166;2023-01-04T05:50:14;3.60;;;2.67;;
23632;SDS011;11993;48.748;9.166;2023-01-04T05:52:40;4.47;;;2.80;;
23632;SDS011;11993;48.748;9.166;2023-01-04T05:55:05;4.65;;;2.90;;
23632;SDS011;11993;48.748;9.166;2023-01-04T05:57:31;4.90;;;3.05;;
23632;SDS011;11993;48.748;9.166;2023-01-04T05:59:57;4.90;;;2.95;;
23632;SDS011;11993;48.748;9.166;2023-01-04T06:02:23;3.33;;;2.72;;
23632;SDS011;11993;48.748;9.166;2023-01-04T06:04:52;3.67;;;2.80;;
23632;SDS011;11993;48.748;9.166;2023-01-04T06:07:17;4.40;;;2.60;;
23632;SDS011;11993;48.748;9.166;2023-01-04T06:09:43;3.17;;;2.70;;
23632;SDS011;11993;48.748;9.166;2023-01-04T06:12:09;4.38;;;2.80;;
23632;SDS011;11993;48.748;9.166;2023-01-04T06:14:34;4.88;;;3.25;;
23632;SDS011;11993;48.748;9.166;2023-01-04T06:17:00;3.97;;;2.97;;
23632;SDS011;11993;48.748;9.166;2023-01-04T06:19:26;5.00;;;3.00;;
23632;SDS011;11993;48.748;9.166;2023-01-04T06:21:51;6.47;;;3.05;;
23632;SDS011;11993;48.748;9.166;2023-01-04T06:24:17;4.15;;;2.90;;
23632;SDS011;11993;48.748;9.166;2023-01-04T06:26:43;3.78;;;3.10;;
23632;SDS011;11993;48.748;9.166;2023-01-04T06:29:09;3.40;;;2.88;;
23632;SDS011;11993;48.748;9.166;2023-01-04T06:31:34;4.15;;;2.80;;
23632;SDS011;11993;48.748;9.166;2023-01-04T06:34:00;5.30;;;3.20;;
23632;SDS011;11993;48.748;9.166;2023-01-04T06:36:26;5.53;;;2.80;;
23632;SDS011;11993;48.748;9.166;2023-01-04T06:38:52;4.10;;;3.00;;
23632;SDS011;11993;48.748;9.166;2023-01-04T06:41:18;3.78;;;2.88;;
23632;SDS011;11993;48.748;9.166;2023-01-04T06:43:44;5.25;;;3.05;;
23632;SDS011;11993;48.748;9.166;2023-01-04T06:46:09;3.65;;;2.80;;
23632;SDS011;11993;48.748;9.166;2023-01-04T06:48:35;5.03;;;2.92;;
23632;SDS011;11993;48.748;9.166;2023-01-04T06:51:00;4.28;;;2.80;;
23632;SDS011;11993;48.748;9.166;2023-01-04T06:53:26;3.92;;;2.72;;
23632;SDS011;11993;48.748;9.166;2023-01-04T06:55:51;3.20;;;2.67;;
23632;SDS011;11993;48.748;9.166;2023-01-04T06:58:17;3.63;;;2.92;;
23632;SDS011;11993;48.748;9.166;2023-01-04T07:00:42;3.80;;;2.83;;
23632;SDS011;11993;48.748;9.166;2023-01-04T07:03:08;3.70;;;2.80;;
23632;SDS011;11993;48.748;9.166;2023-01-04T07:05:34;4.93;;;3.00;;
23632;SDS011;11993;48.748;9.166;2023-01-04T07:08:00;2.90;;;2.33;;
23632;SDS011;11993;48.748;9.166;2023-01-04T07:10:26;3.30;;;2.08;;
23632;SDS011;11993;48.748;9.166;2023-01-04T07:12:52;5.38;;;2.78;;
23632;SDS011;11993;48.748;9.166;2023-01-04T07:15:18;3.10;;;2.22;;
23632;SDS011;11993;48.748;9.166;2023-01-04T07:17:45;2.78;;;2.25;;
23632;SDS011;11993;48.748;9.166;2023-01-04T07:20:12;3.42;;;2.45;;
23632;SDS011;11993;48.748;9.166;2023-01-04T07:22:37;4.13;;;2.10;;
23632;SDS011;11993;48.748;9.166;2023-01-04T07:25:03;3.95;;;2.30;;
23632;SDS011;11993;48.748;9.166;2023-01-04T07:27:29;2.78;;;1.95;;
23632;SDS011;11993;48.748;9.166;2023-01-04T07:29:54;3.10;;;1.85;;
23632;SDS011;11993;48.748;9.166;2023-01-04T07:32:20;3.45;;;2.08;;
23632;SDS011;11993;48.748;9.166;2023-01-04T07:34:45;2.72;;;1.90;;
23632;SDS011;11993;48.748;9.166;2023-01-04T07:37:11;3.13;;;2.08;;
23632;SDS011;11993;48.748;9.166;2023-01-04T07:39:37;2.67;;;1.73;;
23632;SDS011;11993;48.748;9.166;2023-01-04T07:42:03;4.25;;;1.80;;
23632;SDS011;11993;48.748;9.166;2023-01-04T07:44:28;4.03;;;1.90;;
23632;SDS011;11993;48.748;9.166;2023-01-04T07:46:55;3.65;;;1.90;;
23632;SDS011;11993;48.748;9.166;2023-01-04T07:49:20;4.57;;;1.73;;
23632;SDS011;11993;48.748;9.166;2023-01-04T07:51:46;3.10;;;1.83;;
23632;SDS011;11993;48.748;9.166;2023-01-04T07:54:12;4.78;;;2.15;;
23632;SDS011;11993;48.748;9.166;2023-01-04T07:56:39;8.55;;;1.90;;
23632;SDS011;11993;48.748;9.166;2023-01-04T07:59:05;3.90;;;1.92;;
23632;SDS011;11993;48.748;9.166;2023-01-04T08:01:32;4.82;;;2.00;;
23632;SDS011;11993;48.748;9.166;2023-01-04T08:04:02;3.15;;;1.70;;
23632;SDS011;11993;48.748;9.166;2023-01-04T08:06:30;3.55;;;1.90;;
23632;SDS011;11993;48.748;9.166;2023-01-04T08:08:57;2.95;;;1.77;;
23632;SDS011;11993;48.748;9.166;2023-01-04T08:11:23;3.20;;;1.88;;
23632;SDS011;11993;48.748;9.166;2023-01-04T08:13:49;2.63;;;1.40;;
23632;SDS011;11993;48.748;9.166;2023-01-04T08:16:29;5.15;;;1.52;;
23632;SDS011;11993;48.748;9.166;2023-01-04T08:18:57;2.97;;;1.65;;
23632;SDS011;11993;48.748;9.166;2023-01-04T08:21:24;4.38;;;1.60;;
23632;SDS011;11993;48.748;9.166;2023-01-04T08:23:50;2.70;;;1.55;;
23632;SDS011;11993;48.748;9.166;2023-01-04T08:26:17;6.82;;;1.58;;
23632;SDS011;11993;48.748;9.166;2023-01-04T08:28:43;4.40;;;1.60;;
23632;SDS011;11993;48.748;9.166;2023-01-04T08:31:13;5.95;;;1.80;;
23632;SDS011;11993;48.748;9.166;2023-01-04T08:33:44;2.05;;;1.35;;
23632;SDS011;11993;48.748;9.166;2023-01-04T08:36:11;1.45;;;1.02;;
23632;SDS011;11993;48.748;9.166;2023-01-04T08:38:41;6.15;;;1.83;;
23632;SDS011;11993;48.748;9.166;2023-01-04T08:41:07;3.25;;;1.50;;
23632;SDS011;11993;48.748;9.166;2023-01-04T08:43:33;5.22;;;1.50;;
23632;SDS011;11993;48.748;9.166;2023-01-04T08:46:00;1.77;;;1.00;;
23632;SDS011;11993;48.748;9.166;2023-01-04T08:48:29;1.55;;;1.33;;
23632;SDS011;11993;48.748;9.166;2023-01-04T08:50:59;3.38;;;1.63;;
23632;SDS011;11993;48.748;9.166;2023-01-04T08:53:26;2.67;;;1.42;;
23632;SDS011;11993;48.748;9.166;2023-01-04T08:55:52;3.08;;;1.80;;
23632;SDS011;11993;48.748;9.166;2023-01-04T08:58:19;1.63;;;1.30;;
23632;SDS011;11993;48.748;9.166;2023-01-04T09:00:45;1.83;;;1.20;;
23632;SDS011;11993;48.748;9.166;2023-01-04T09:03:11;2.85;;;1.42;;
23632;SDS011;11993;48.748;9.166;2023-01-04T09:05:37;1.30;;;1.17;;
23632;SDS011;11993;48.748;9.166;2023-01-04T09:08:02;2.75;;;1.63;;
23632;SDS011;11993;48.748;9.166;2023-01-04T09:10:29;4.15;;;1.67;;
23632;SDS011;11993;48.748;9.166;2023-01-04T09:12:54;2.03;;;1.65;;
23632;SDS011;11993;48.748;9.166;2023-01-04T09:15:21;9.88;;;1.27;;
23632;SDS011;11993;48.748;9.166;2023-01-04T09:17:48;4.00;;;1.50;;
23632;SDS011;11993;48.748;9.166;2023-01-04T09:20:14;3.17;;;1.40;;
23632;SDS011;11993;48.748;9.166;2023-01-04T09:22:39;3.05;;;1.42;;
23632;SDS011;11993;48.748;9.166;2023-01-04T09:25:05;1.90;;;1.30;;
23632;SDS011;11993;48.748;9.166;2023-01-04T09:27:31;2.03;;;1.38;;
23632;SDS011;11993;48.748;9.166;2023-01-04T09:29:57;4.22;;;1.65;;
23632;SDS011;11993;48.748;9.166;2023-01-04T09:32:23;3.80;;;1.13;;
23632;SDS011;11993;48.748;9.166;2023-01-04T09:34:49;3.85;;;1.60;;
23632;SDS011;11993;48.748;9.166;2023-01-04T09:37:14;3.10;;;1.38;;
23632;SDS011;11993;48.748;9.166;2023-01-04T09:39:40;1.63;;;1.30;;
23632;SDS011;11993;48.748;9.166;2023-01-04T09:42:51;5.15;;;1.48;;
23632;SDS011;11993;48.748;9.166;2023-01-04T09:44:55;2.35;;;1.20;;
23632;SDS011;11993;48.748;9.166;2023-01-04T09:47:37;2.17;;;1.23;;
23632;SDS011;11993;48.748;9.166;2023-01-04T09:50:26;2.00;;;1.23;;
23632;SDS011;11993;48.748;9.166;2023-01-04T09:55:41;2.83;;;1.70;;
23632;SDS011;11993;48.748;9.166;2023-01-04T09:58:19;1.90;;;0.95;;
23632;SDS011;11993;48.748;9.166;2023-01-04T10:03:27;1.48;;;1.05;;
23632;SDS011;11993;48.748;9.166;2023-01-04T10:05:59;1.55;;;1.02;;
23632;SDS011;11993;48.748;9.166;2023-01-04T10:08:25;2.72;;;1.25;;
23632;SDS011;11993;48.748;9.166;2023-01-04T10:11:06;3.13;;;1.20;;
23632;SDS011;11993;48.748;9.166;2023-01-04T10:21:50;2.75;;;1.17;;
23632;SDS011;11993;48.748;9.166;2023-01-04T10:27:14;4.57;;;1.65;;
23632;SDS011;11993;48.748;9.166;2023-01-04T10:30:09;6.05;;;1.90;;
23632;SDS011;11993;48.748;9.166;2023-01-04T10:32:50;4.50;;;2.25;;
23632;SDS011;11993;48.748;9.166;2023-01-04T10:35:28;5.45;;;1.80;;
23632;SDS011;11993;48.748;9.166;2023-01-04T10:38:02;3.42;;;1.75;;
23632;SDS011;11993;48.748;9.166;2023-01-04T10:40:34;2.30;;;1.10;;
23632;SDS011;11993;48.748;9.166;2023-01-04T10:45:49;3.00;;;1.17;;
23632;SDS011;11993;48.748;9.166;2023-01-04T10:51:39;2.25;;;1.00;;
23632;SDS011;11993;48.748;9.166;2023-01-04T10:54:26;2.50;;;1.10;;
23632;SDS011;11993;48.748;9.166;2023-01-04T10:59:43;1.42;;;0.93;;
23632;SDS011;11993;48.748;9.166;2023-01-04T11:02:21;1.85;;;1.00;;
23632;SDS011;11993;48.748;9.166;2023-01-04T11:04:59;2.53;;;1.20;;
23632;SDS011;11993;48.748;9.166;2023-01-04T11:10:54;2.63;;;1.00;;
23632;SDS011;11993;48.748;9.166;2023-01-04T11:13:19;3.90;;;1.40;;
23632;SDS011;11993;48.748;9.166;2023-01-04T11:15:46;2.65;;;1.17;;
23632;SDS011;11993;48.748;9.166;2023-01-04T11:18:12;1.70;;;1.00;;
23632;SDS011;11993;48.748;9.166;2023-01-04T11:20:39;2.40;;;1.00;;
23632;SDS011;11993;48.748;9.166;2023-01-04T11:23:15;2.25;;;1.05;;
23632;SDS011;11993;48.748;9.166;2023-01-04T11:25:44;2.67;;;0.90;;
23632;SDS011;11993;48.748;9.166;2023-01-04T11:31:00;1.53;;;1.00;;
23632;SDS011;11993;48.748;9.166;2023-01-04T11:39:00;2.22;;;0.85;;
23632;SDS011;11993;48.748;9.166;2023-01-04T11:41:27;3.22;;;1.38;;
23632;SDS011;11993;48.748;9.166;2023-01-04T11:44:11;2.63;;;1.10;;
23632;SDS011;11993;48.748;9.166;2023-01-04T11:46:43;2.28;;;1.10;;
23632;SDS011;11993;48.748;9.166;2023-01-04T11:49:17;3.55;;;1.25;;
23632;SDS011;11993;48.748;9.166;2023-01-04T11:51:44;2.20;;;1.20;;
23632;SDS011;11993;48.748;9.166;2023-01-04T11:56:38;1.70;;;1.10;;
23632;SDS011;11993;48.748;9.166;2023-01-04T11:59:20;1.33;;;0.90;;
23632;SDS011;11993;48.748;9.166;2023-01-04T12:01:47;3.05;;;1.20;;
23632;SDS011;11993;48.748;9.166;2023-01-04T12:04:22;4.63;;;1.20;;
23632;SDS011;11993;48.748;9.166;2023-01-04T12:06:59;3.22;;;1.20;;
23632;SDS011;11993;48.748;9.166;2023-01-04T12:09:29;5.30;;;2.53;;
23632;SDS011;11993;48.748;9.166;2023-01-04T12:11:55;2.70;;;1.88;;
23632;SDS011;11993;48.748;9.166;2023-01-04T12:14:24;3.70;;;1.23;;
23632;SDS011;11993;48.748;9.166;2023-01-04T12:16:56;1.95;;;1.10;;
23632;SDS011;11993;48.748;9.166;2023-01-04T12:19:31;2.72;;;0.98;;
23632;SDS011;11993;48.748;9.166;2023-01-04T12:22:00;4.47;;;1.10;;
23632;SDS011;11993;48.748;9.166;2023-01-04T12:24:28;3.25;;;1.00;;
23632;SDS011;11993;48.748;9.166;2023-01-04T12:26:58;3.03;;;1.10;;
23632;SDS011;11993;48.748;9.166;2023-01-04T12:29:32;3.30;;;1.25;;
23632;SDS011;11993;48.748;9.166;2023-01-04T12:36:58;1.10;;;1.00;;
23632;SDS011;11993;48.748;9.166;2023-01-04T12:39:26;2.80;;;0.90;;
23632;SDS011;11993;48.748;9.166;2023-01-04T12:50:03;5.88;;;1.10;;
23632;SDS011;11993;48.748;9.166;2023-01-04T12:52:44;1.27;;;0.75;;
23632;SDS011;11993;48.748;9.166;2023-01-04T12:57:57;4.10;;;1.23;;
23632;SDS011;11993;48.748;9.166;2023-01-04T13:01:06;2.00;;;1.00;;
23632;SDS011;11993;48.748;9.166;2023-01-04T13:05:45;3.10;;;1.30;;
23632;SDS011;11993;48.748;9.166;2023-01-04T13:08:12;3.97;;;1.00;;
23632;SDS011;11993;48.748;9.166;2023-01-04T13:10:48;2.88;;;1.33;;
23632;SDS011;11993;48.748;9.166;2023-01-04T13:18:32;3.38;;;1.05;;
23632;SDS011;11993;48.748;9.166;2023-01-04T13:21:00;3.33;;;1.33;;
23632;SDS011;11993;48.748;9.166;2023-01-04T13:23:35;2.50;;;1.05;;
23632;SDS011;11993;48.748;9.166;2023-01-04T13:31:44;2.95;;;1.33;;
23632;SDS011;11993;48.748;9.166;2023-01-04T13:39:33;6.18;;;1.90;;
23632;SDS011;11993;48.748;9.166;2023-01-04T13:42:03;1.10;;;0.80;;
23632;SDS011;11993;48.748;9.166;2023-01-04T13:44:40;2.08;;;1.20;;
23632;SDS011;11993;48.748;9.166;2023-01-04T13:47:32;1.77;;;1.13;;
23632;SDS011;11993;48.748;9.166;2023-01-04T13:50:00;1.50;;;0.98;;
23632;SDS011;11993;48.748;9.166;2023-01-04T13:52:27;3.55;;;1.10;;
23632;SDS011;11993;48.748;9.166;2023-01-04T13:57:55;2.08;;;1.23;;
23632;SDS011;11993;48.748;9.166;2023-01-04T14:00:24;2.72;;;0.80;;
23632;SDS011;11993;48.748;9.166;2023-01-04T14:03:15;2.00;;;0.85;;
23632;SDS011;11993;48.748;9.166;2023-01-04T14:08:35;3.17;;;1.02;;
23632;SDS011;11993;48.748;9.166;2023-01-04T14:11:17;4.38;;;1.58;;
23632;SDS011;11993;48.748;9.166;2023-01-04T14:14:14;2.88;;;1.00;;
23632;SDS011;11993;48.748;9.166;2023-01-04T14:16:49;1.60;;;0.82;;
23632;SDS011;11993;48.748;9.166;2023-01-04T14:22:56;3.38;;;1.20;;
23632;SDS011;11993;48.748;9.166;2023-01-04T14:25:30;1.67;;;0.82;;
23632;SDS011;11993;48.748;9.166;2023-01-04T14:28:18;2.58;;;1.60;;
23632;SDS011;11993;48.748;9.166;2023-01-04T14:38:34;1.40;;;0.80;;
23632;SDS011;11993;48.748;9.166;2023-01-04T14:41:18;1.35;;;0.73;;
23632;SDS011;11993;48.748;9.166;2023-01-04T14:43:48;2.03;;;0.80;;
23632;SDS011;11993;48.748;9.166;2023-01-04T14:46:19;2.47;;;0.80;;
23632;SDS011;11993;48.748;9.166;2023-01-04T14:48:45;2.72;;;0.90;;
23632;SDS011;11993;48.748;9.166;2023-01-04T14:51:11;1.42;;;0.90;;
23632;SDS011;11993;48.748;9.166;2023-01-04T14:53:40;2.35;;;0.82;;
23632;SDS011;11993;48.748;9.166;2023-01-04T14:56:07;3.85;;;0.80;;
23632;SDS011;11993;48.748;9.166;2023-01-04T14:58:36;1.08;;;0.98;;
23632;SDS011;11993;48.748;9.166;2023-01-04T15:01:02;1.35;;;0.80;;
23632;SDS011;11993;48.748;9.166;2023-01-04T15:03:27;2.08;;;1.00;;
23632;SDS011;11993;48.748;9.166;2023-01-04T15:05:53;1.40;;;0.75;;
23632;SDS011;11993;48.748;9.166;2023-01-04T15:08:20;4.07;;;1.15;;
23632;SDS011;11993;48.748;9.166;2023-01-04T15:10:46;0.95;;;0.70;;
23632;SDS011;11993;48.748;9.166;2023-01-04T15:13:12;1.27;;;0.65;;
23632;SDS011;11993;48.748;9.166;2023-01-04T15:15:38;1.55;;;1.00;;
23632;SDS011;11993;48.748;9.166;2023-01-04T15:18:03;3.22;;;1.02;;
23632;SDS011;11993;48.748;9.166;2023-01-04T15:20:29;1.58;;;0.90;;
23632;SDS011;11993;48.748;9.166;2023-01-04T15:22:55;1.98;;;1.10;;
23632;SDS011;11993;48.748;9.166;2023-01-04T15:25:21;1.15;;;0.75;;
23632;SDS011;11993;48.748;9.166;2023-01-04T15:27:47;1.30;;;0.90;;
23632;SDS011;11993;48.748;9.166;2023-01-04T15:30:13;2.70;;;1.23;;
23632;SDS011;11993;48.748;9.166;2023-01-04T15:32:39;1.98;;;1.10;;
23632;SDS011;11993;48.748;9.166;2023-01-04T15:35:05;2.22;;;0.98;;
23632;SDS011;11993;48.748;9.166;2023-01-04T15:37:30;0.75;;;0.70;;
23632;SDS011;11993;48.748;9.166;2023-01-04T15:39:56;3.20;;;1.25;;
23632;SDS011;11993;48.748;9.166;2023-01-04T15:42:22;3.38;;;0.90;;
23632;SDS011;11993;48.748;9.166;2023-01-04T15:45:06;1.58;;;0.88;;
23632;SDS011;11993;48.748;9.166;2023-01-04T15:47:32;3.40;;;0.90;;
23632;SDS011;11993;48.748;9.166;2023-01-04T15:49:58;2.28;;;0.90;;
23632;SDS011;11993;48.748;9.166;2023-01-04T15:52:24;2.58;;;1.00;;
23632;SDS011;11993;48.748;9.166;2023-01-04T15:54:49;3.83;;;0.90;;
23632;SDS011;11993;48.748;9.166;2023-01-04T15:57:15;4.63;;;1.10;;
23632;SDS011;11993;48.748;9.166;2023-01-04T15:59:40;1.20;;;0.98;;
23632;SDS011;11993;48.748;9.166;2023-01-04T16:02:07;2.17;;;0.98;;
23632;SDS011;11993;48.748;9.166;2023-01-04T16:04:35;5.47;;;1.00;;
23632;SDS011;11993;48.748;9.166;2023-01-04T16:07:01;0.82;;;0.80;;
23632;SDS011;11993;48.748;9.166;2023-01-04T16:09:26;0.88;;;0.73;;
23632;SDS011;11993;48.748;9.166;2023-01-04T16:11:52;1.95;;;0.90;;
23632;SDS011;11993;48.748;9.166;2023-01-04T16:14:36;3.80;;;1.05;;
23632;SDS011;11993;48.748;9.166;2023-01-04T16:17:02;1.33;;;1.02;;
23632;SDS011;11993;48.748;9.166;2023-01-04T16:19:27;2.00;;;0.98;;
23632;SDS011;11993;48.748;9.166;2023-01-04T16:21:56;1.10;;;0.77;;
23632;SDS011;11993;48.748;9.166;2023-01-04T16:24:22;2.85;;;1.10;;
23632;SDS011;11993;48.748;9.166;2023-01-04T16:26:48;1.60;;;0.75;;
23632;SDS011;11993;48.748;9.166;2023-01-04T16:29:13;1.30;;;0.80;;
23632;SDS011;11993;48.748;9.166;2023-01-04T16:31:39;1.45;;;0.80;;
23632;SDS011;11993;48.748;9.166;2023-01-04T16:34:08;2.47;;;0.88;;
23632;SDS011;11993;48.748;9.166;2023-01-04T16:36:36;2.92;;;0.90;;
23632;SDS011;11993;48.748;9.166;2023-01-04T16:39:01;1.85;;;0.88;;
23632;SDS011;11993;48.748;9.166;2023-01-04T16:41:27;2.20;;;0.82;;
23632;SDS011;11993;48.748;9.166;2023-01-04T16:43:53;1.13;;;0.90;;
23632;SDS011;11993;48.748;9.166;2023-01-04T16:46:22;1.92;;;0.98;;
23632;SDS011;11993;48.748;9.166;2023-01-04T16:51:19;2.70;;;1.05;;
23632;SDS011;11993;48.748;9.166;2023-01-04T16:53:46;2.38;;;1.00;;
23632;SDS011;11993;48.748;9.166;2023-01-04T16:56:13;2.22;;;1.20;;
23632;SDS011;11993;48.748;9.166;2023-01-04T16:58:40;1.20;;;0.80;;
23632;SDS011;11993;48.748;9.166;2023-01-04T17:01:10;1.48;;;0.80;;
23632;SDS011;11993;48.748;9.166;2023-01-04T17:03:44;1.27;;;0.98;;
23632;SDS011;11993;48.748;9.166;2023-01-04T17:08:38;1.05;;;0.88;;
23632;SDS011;11993;48.748;9.166;2023-01-04T17:11:05;1.08;;;0.65;;
23632;SDS011;11993;48.748;9.166;2023-01-04T17:13:31;1.65;;;0.88;;
23632;SDS011;11993;48.748;9.166;2023-01-04T17:15:58;1.50;;;0.80;;